In Rescue
 
Open Full Screen Window  High Contrast Mode
Wind Gusting 00 knots
04
November 20, 2019 2:13 AM EST
Present Weather: Mist
Weather Information
Wind Direction
  340 °
Wind Speed
  04 kt (5 mph)
Wind Gust
  00 kt (0 mph)
Altimeter
29.90 in
Visibility
3 SM
Temperature
-01° C
30° F
Dewpoint
-01° C
30° F
Humidity
100%
Sky Condition
Overcast @ 600 ft
IFR

METAR KEFK 200713Z AUTO 34004KT 3SM BR OVC006 M01/M01 A2990 RMK AO2 T10101010

FAA Disclaimer: The data displayed is for advisory purposes only and is not to be used for flight planning or operations.